createdAt,value
2018-12-06T00:00:10.651Z,99.36
2018-12-06T00:02:39.139Z,99.64
2018-12-06T00:05:07.626Z,99.60
2018-12-06T00:07:36.248Z,99.83
2018-12-06T00:10:04.849Z,98.90
2018-12-06T00:12:33.382Z,98.99
2018-12-06T00:15:13.042Z,98.20
2018-12-06T00:17:42.534Z,98.32
2018-12-06T00:20:11.155Z,98.99
2018-12-06T00:22:39.959Z,99.42
2018-12-06T00:25:08.568Z,100.00
2018-12-06T00:27:37.082Z,100.00
2018-12-06T00:30:16.637Z,100.00
2018-12-06T00:32:45.874Z,99.56
2018-12-06T00:35:14.795Z,99.62
2018-12-06T00:37:44.363Z,99.72
2018-12-06T00:40:12.886Z,99.73
2018-12-06T00:42:41.471Z,98.63
2018-12-06T00:45:10.083Z,99.14
2018-12-06T00:47:38.565Z,99.02
2018-12-06T00:50:07.072Z,98.76
2018-12-06T00:52:36.246Z,99.05
2018-12-06T00:55:05.554Z,98.41
2018-12-06T00:57:34.217Z,99.15
2018-12-06T01:00:02.751Z,98.60
2018-12-06T01:02:31.334Z,98.94
2018-12-06T01:04:59.922Z,100.00
2018-12-06T01:07:28.365Z,99.88
2018-12-06T01:09:58.011Z,100.00
2018-12-06T01:12:27.056Z,99.89
2018-12-06T01:14:55.765Z,100.00
2018-12-06T01:17:24.222Z,99.74
2018-12-06T01:19:52.717Z,98.76
2018-12-06T01:22:21.196Z,99.28
2018-12-06T01:24:49.748Z,99.07
2018-12-06T01:27:18.443Z,98.05
2018-12-06T01:29:47.054Z,98.19
2018-12-06T01:32:15.548Z,98.79
2018-12-06T01:34:44.131Z,99.23
2018-12-06T01:37:12.613Z,98.68
2018-12-06T01:39:41.379Z,98.53
2018-12-06T01:42:09.861Z,98.82
2018-12-06T01:44:38.360Z,99.18
2018-12-06T01:47:06.907Z,99.17
2018-12-06T01:49:35.450Z,98.60
2018-12-06T01:52:04.738Z,98.44
2018-12-06T01:54:34.161Z,98.65
2018-12-06T01:57:02.688Z,98.25
2018-12-06T01:59:31.203Z,98.36
2018-12-06T02:02:00.334Z,99.04
2018-12-06T02:04:28.851Z,99.17
2018-12-06T02:06:57.335Z,99.09
2018-12-06T02:09:25.820Z,99.35
2018-12-06T02:11:54.358Z,99.46
2018-12-06T02:14:22.961Z,99.54
2018-12-06T02:16:51.481Z,99.10
2018-12-06T02:19:20.003Z,98.96
2018-12-06T02:21:48.527Z,99.25
2018-12-06T02:24:16.991Z,98.67
2018-12-06T02:26:46.445Z,98.40
2018-12-06T02:29:15.963Z,98.54
2018-12-06T02:31:44.442Z,98.41
2018-12-06T02:34:12.926Z,98.71
2018-12-06T02:36:41.512Z,98.87
2018-12-06T02:39:10.040Z,98.20
2018-12-06T02:41:38.547Z,98.50
2018-12-06T02:44:07.217Z,98.69
2018-12-06T02:46:35.896Z,98.69
2018-12-06T02:49:04.420Z,98.32
2018-12-06T02:51:32.960Z,98.36
2018-12-06T02:54:01.436Z,97.97
2018-12-06T02:56:30.047Z,97.94
2018-12-06T02:58:58.583Z,98.05
2018-12-06T03:01:27.062Z,98.21
2018-12-06T03:03:55.721Z,98.16
2018-12-06T03:06:24.863Z,97.90
2018-12-06T03:08:53.349Z,97.60
2018-12-06T03:11:21.807Z,97.83
2018-12-06T03:13:50.287Z,97.70
2018-12-06T03:16:19.594Z,98.05
2018-12-06T03:18:49.000Z,97.40
2018-12-06T03:21:17.523Z,97.34
2018-12-06T03:23:46.023Z,96.98
2018-12-06T03:26:14.571Z,97.90
2018-12-06T03:28:43.078Z,98.51
2018-12-06T03:31:11.967Z,98.37
2018-12-06T03:33:41.234Z,98.04
2018-12-06T03:36:09.696Z,98.02
2018-12-06T03:38:38.201Z,98.15
2018-12-06T03:41:06.723Z,97.70
2018-12-06T03:43:35.176Z,97.51
2018-12-06T03:46:03.635Z,98.12
2018-12-06T03:48:32.167Z,97.91
2018-12-06T03:51:00.644Z,98.17
2018-12-06T03:53:29.227Z,97.83
2018-12-06T03:55:57.863Z,97.85
2018-12-06T03:58:26.460Z,97.31
2018-12-06T04:00:54.977Z,98.47
2018-12-06T04:03:23.456Z,98.16
2018-12-06T04:05:52.541Z,98.39
2018-12-06T04:08:21.071Z,98.10
2018-12-06T04:10:50.415Z,97.96
2018-12-06T04:13:19.730Z,98.63
2018-12-06T04:15:48.316Z,97.67
2018-12-06T04:18:16.843Z,99.06
2018-12-06T04:20:45.259Z,99.03
2018-12-06T04:23:14.538Z,98.98
2018-12-06T04:25:42.983Z,99.10
2018-12-06T04:28:11.614Z,99.26
2018-12-06T04:30:40.112Z,99.54
2018-12-06T04:33:08.700Z,99.96
2018-12-06T04:35:37.280Z,100.00
2018-12-06T04:38:05.831Z,99.99
2018-12-06T04:40:34.314Z,100.00
2018-12-06T04:43:03.331Z,100.00
2018-12-06T04:45:31.802Z,100.00
2018-12-06T04:48:00.241Z,100.00
2018-12-06T04:50:28.752Z,100.00
2018-12-06T04:52:57.191Z,100.00
2018-12-06T04:55:25.805Z,100.00
2018-12-06T04:57:54.301Z,100.00
2018-12-06T05:00:22.780Z,100.00
2018-12-06T05:02:51.372Z,100.00
2018-12-06T05:05:19.901Z,100.00
2018-12-06T05:07:48.627Z,100.00
2018-12-06T05:10:17.119Z,100.00
2018-12-06T05:12:45.669Z,100.00
2018-12-06T05:15:14.199Z,100.00
2018-12-06T05:17:42.623Z,100.00
2018-12-06T05:20:11.167Z,100.00
2018-12-06T05:22:39.980Z,100.00
2018-12-06T05:25:08.531Z,99.88
2018-12-06T05:27:37.002Z,99.60
2018-12-06T05:30:06.205Z,100.00
2018-12-06T05:32:34.660Z,99.92
2018-12-06T05:35:03.203Z,99.66
2018-12-06T05:37:31.821Z,100.00
2018-12-06T05:40:00.390Z,99.91
2018-12-06T05:42:28.910Z,100.00
2018-12-06T05:44:57.475Z,100.00
2018-12-06T05:47:26.099Z,100.00
2018-12-06T05:49:54.535Z,100.00
2018-12-06T05:52:23.072Z,100.00
2018-12-06T05:54:51.566Z,100.00
2018-12-06T05:57:20.225Z,100.00
2018-12-06T05:59:48.685Z,100.00
2018-12-06T06:02:17.236Z,100.00
2018-12-06T06:04:45.704Z,100.00
2018-12-06T06:07:14.201Z,100.00
2018-12-06T06:09:42.759Z,100.00
2018-12-06T06:12:11.366Z,100.00
2018-12-06T06:14:39.919Z,100.00
2018-12-06T06:17:08.399Z,100.00
2018-12-06T06:19:36.873Z,100.00
2018-12-06T06:22:05.293Z,100.00
2018-12-06T06:24:33.745Z,100.00
2018-12-06T06:27:02.214Z,100.00
2018-12-06T06:29:30.805Z,100.00
2018-12-06T06:31:59.281Z,100.00
2018-12-06T06:34:28.374Z,100.00
2018-12-06T06:36:56.864Z,100.00
2018-12-06T06:39:25.442Z,100.00
2018-12-06T06:41:54.624Z,100.00
2018-12-06T06:44:23.308Z,100.00
2018-12-06T06:46:51.820Z,100.00
2018-12-06T06:49:20.300Z,100.00
2018-12-06T06:51:49.496Z,100.00
2018-12-06T06:55:20.689Z,100.00
2018-12-06T06:57:49.358Z,100.00
2018-12-06T07:00:18.049Z,100.00
2018-12-06T07:02:46.613Z,100.00
2018-12-06T07:05:23.562Z,100.00
2018-12-06T07:07:52.896Z,100.00
2018-12-06T07:10:22.037Z,100.00
2018-12-06T07:12:51.214Z,100.00
2018-12-06T07:15:20.625Z,100.00
2018-12-06T07:17:49.114Z,100.00
2018-12-06T07:20:17.626Z,100.00
2018-12-06T07:22:49.385Z,100.00
2018-12-06T07:25:19.373Z,100.00
2018-12-06T07:27:47.898Z,100.00
2018-12-06T07:30:16.448Z,100.00
2018-12-06T07:32:44.944Z,100.00
2018-12-06T07:35:13.426Z,100.00
2018-12-06T07:37:41.948Z,100.00
2018-12-06T07:40:10.434Z,100.00
2018-12-06T07:42:39.114Z,100.00
2018-12-06T07:45:07.668Z,100.00
2018-12-06T07:47:36.122Z,100.00
2018-12-06T07:50:05.521Z,100.00
2018-12-06T07:52:34.085Z,100.00
2018-12-06T07:55:02.537Z,100.00
2018-12-06T07:57:31.136Z,100.00
2018-12-06T08:00:00.474Z,100.00
2018-12-06T08:02:29.506Z,100.00
2018-12-06T08:04:58.719Z,100.00
2018-12-06T08:07:27.351Z,100.00
2018-12-06T08:09:55.875Z,100.00
2018-12-06T08:12:24.353Z,100.00
2018-12-06T08:14:52.818Z,100.00
2018-12-06T08:17:21.390Z,100.00
2018-12-06T08:19:51.438Z,100.00
2018-12-06T08:22:19.906Z,100.00
2018-12-06T08:24:48.386Z,100.00
2018-12-06T08:27:16.931Z,100.00
2018-12-06T08:29:45.447Z,100.00
2018-12-06T08:32:14.095Z,100.00
2018-12-06T08:34:42.591Z,100.00
2018-12-06T08:37:11.139Z,100.00
2018-12-06T08:39:40.184Z,100.00
2018-12-06T08:42:08.662Z,100.00
2018-12-06T08:44:37.253Z,100.00
2018-12-06T08:47:07.414Z,100.00
2018-12-06T08:49:36.024Z,100.00
2018-12-06T08:52:04.544Z,100.00
2018-12-06T08:54:33.109Z,100.00
2018-12-06T08:57:01.630Z,100.00
2018-12-06T08:59:30.131Z,100.00
2018-12-06T09:01:58.632Z,100.00
2018-12-06T09:04:27.083Z,100.00
2018-12-06T09:06:55.613Z,100.00
2018-12-06T09:09:24.200Z,100.00
2018-12-06T09:11:52.767Z,100.00
2018-12-06T09:14:21.232Z,100.00
2018-12-06T09:16:49.675Z,100.00
2018-12-06T09:19:18.401Z,100.00
2018-12-06T09:21:47.591Z,100.00
2018-12-06T09:24:16.102Z,100.00
2018-12-06T09:26:44.528Z,100.00
2018-12-06T09:29:13.006Z,100.00
2018-12-06T09:31:41.521Z,100.00
2018-12-06T09:34:10.024Z,100.00
2018-12-06T09:36:38.907Z,100.00
2018-12-06T09:39:09.517Z,100.00
2018-12-06T09:41:38.055Z,100.00
2018-12-06T09:44:06.581Z,100.00
2018-12-06T09:46:35.220Z,100.00
2018-12-06T09:49:04.737Z,100.00
2018-12-06T09:51:33.539Z,100.00
2018-12-06T09:54:02.425Z,100.00
2018-12-06T09:56:31.565Z,100.00
2018-12-06T09:59:00.142Z,100.00
2018-12-06T10:01:28.734Z,100.00
2018-12-06T10:03:58.176Z,100.00
2018-12-06T10:06:26.696Z,100.00
2018-12-06T10:08:55.179Z,100.00
2018-12-06T10:11:23.762Z,100.00
2018-12-06T10:13:52.256Z,100.00
2018-12-06T10:16:20.791Z,100.00
2018-12-06T10:18:49.297Z,100.00
2018-12-06T10:21:18.544Z,100.00
2018-12-06T10:23:47.053Z,100.00
2018-12-06T10:26:15.560Z,100.00
2018-12-06T10:28:44.084Z,100.00
2018-12-06T10:31:44.076Z,99.94
2018-12-06T10:34:12.588Z,100.00
2018-12-06T10:36:41.193Z,99.86
2018-12-06T10:39:09.721Z,100.00
2018-12-06T10:41:38.256Z,99.42
2018-12-06T10:44:06.832Z,97.70
2018-12-06T10:46:35.349Z,98.52
2018-12-06T10:49:04.090Z,99.58
2018-12-06T10:51:42.097Z,99.17
2018-12-06T10:54:10.639Z,99.18
2018-12-06T10:56:39.183Z,97.82
2018-12-06T10:59:09.402Z,97.23
2018-12-06T11:01:43.141Z,99.37
2018-12-06T11:04:11.667Z,98.34
2018-12-06T11:06:40.216Z,96.89
2018-12-06T11:09:09.250Z,97.10
2018-12-06T11:11:38.375Z,98.26
2018-12-06T11:14:06.950Z,97.42
2018-12-06T11:16:36.195Z,98.39
2018-12-06T11:19:04.712Z,98.23
2018-12-06T11:21:33.248Z,97.60
2018-12-06T11:24:01.746Z,96.93
2018-12-06T11:26:30.272Z,98.58
2018-12-06T11:28:58.895Z,98.57
2018-12-06T11:31:27.522Z,97.83
2018-12-06T11:33:56.031Z,96.85
2018-12-06T11:36:24.521Z,97.11
2018-12-06T11:38:53.098Z,97.12
2018-12-06T11:41:21.637Z,97.70
2018-12-06T11:43:50.135Z,98.15
2018-12-06T11:46:19.305Z,97.91
2018-12-06T11:48:47.876Z,98.39
2018-12-06T11:51:16.503Z,96.85
2018-12-06T11:53:45.133Z,95.39
2018-12-06T11:56:13.641Z,94.08
2018-12-06T11:58:42.175Z,91.41
2018-12-06T12:01:10.813Z,91.39
2018-12-06T12:03:40.460Z,90.39
2018-12-06T12:06:20.242Z,90.34
2018-12-06T12:09:00.208Z,92.31
2018-12-06T12:11:28.713Z,92.39
2018-12-06T12:13:57.379Z,93.99
2018-12-06T12:16:25.877Z,94.61
2018-12-06T12:18:54.945Z,95.29
2018-12-06T12:21:23.395Z,96.46
2018-12-06T12:23:51.956Z,95.35
2018-12-06T12:26:20.579Z,95.92
2018-12-06T12:28:49.028Z,96.65
2018-12-06T12:31:17.515Z,95.85
2018-12-06T12:33:46.023Z,96.41
2018-12-06T12:36:14.515Z,97.45
2018-12-06T12:38:43.619Z,97.37
2018-12-06T12:41:12.203Z,96.86
2018-12-06T12:43:40.915Z,97.25
2018-12-06T12:46:09.397Z,96.98
2018-12-06T12:48:37.949Z,98.08
2018-12-06T12:51:06.841Z,98.67
2018-12-06T12:53:35.367Z,97.60
2018-12-06T12:56:03.795Z,98.28
2018-12-06T12:58:32.277Z,97.46
2018-12-06T13:01:00.947Z,97.89
2018-12-06T13:03:29.506Z,98.01
2018-12-06T13:05:57.947Z,97.20
2018-12-06T13:08:26.473Z,97.27
2018-12-06T13:10:54.971Z,97.51
2018-12-06T13:13:23.506Z,99.10
2018-12-06T13:15:52.968Z,98.36
2018-12-06T13:18:22.493Z,98.32
2018-12-06T13:20:51.114Z,97.98
2018-12-06T13:23:19.666Z,97.42
2018-12-06T13:25:48.158Z,97.71
2018-12-06T13:28:16.674Z,99.19
2018-12-06T13:30:45.169Z,99.48
2018-12-06T13:33:13.685Z,98.58
2018-12-06T13:35:42.176Z,98.25
2018-12-06T13:38:10.758Z,98.37
2018-12-06T13:40:40.166Z,97.82
2018-12-06T13:43:08.778Z,98.69
2018-12-06T13:45:37.306Z,98.28
2018-12-06T13:48:05.933Z,98.11
2018-12-06T13:50:34.405Z,97.58
2018-12-06T13:53:02.897Z,97.47
2018-12-06T13:55:31.433Z,97.52
2018-12-06T13:58:00.032Z,97.00
2018-12-06T14:00:28.745Z,96.99
2018-12-06T14:02:57.442Z,97.29
2018-12-06T14:05:25.922Z,96.63
2018-12-06T14:07:54.403Z,96.80
2018-12-06T14:10:22.894Z,96.26
2018-12-06T14:12:51.321Z,96.62
2018-12-06T14:15:19.827Z,96.60
2018-12-06T14:17:48.389Z,97.15
2018-12-06T14:20:16.884Z,96.64
2018-12-06T14:22:45.394Z,95.84
2018-12-06T14:25:14.032Z,96.24
2018-12-06T14:27:42.479Z,96.45
2018-12-06T14:30:11.011Z,95.58
2018-12-06T14:32:39.460Z,96.05
2018-12-06T14:35:08.118Z,96.24
2018-12-06T14:37:36.675Z,95.69
2018-12-06T14:40:06.017Z,96.21
2018-12-06T14:42:34.597Z,95.85
2018-12-06T14:45:03.117Z,97.14
2018-12-06T14:47:31.752Z,97.17
2018-12-06T14:50:00.522Z,97.87
2018-12-06T14:52:29.004Z,97.09
2018-12-06T14:54:57.521Z,97.44
2018-12-06T14:57:25.986Z,98.42
2018-12-06T14:59:54.537Z,98.91
2018-12-06T15:02:22.999Z,98.77
2018-12-06T15:04:51.589Z,99.07
2018-12-06T15:07:20.078Z,99.40
2018-12-06T15:09:48.553Z,98.74
2018-12-06T15:12:17.055Z,98.40
2018-12-06T15:14:46.210Z,97.96
2018-12-06T15:17:14.685Z,98.18
2018-12-06T15:19:43.884Z,98.64
2018-12-06T15:22:13.677Z,98.01
2018-12-06T15:24:42.146Z,98.20
2018-12-06T15:27:10.631Z,98.94
2018-12-06T15:29:39.111Z,98.66
2018-12-06T15:32:07.620Z,98.47
2018-12-06T15:34:36.171Z,99.20
2018-12-06T15:37:07.167Z,99.17
2018-12-06T15:39:35.672Z,98.79
2018-12-06T15:42:04.137Z,98.93
2018-12-06T15:44:32.850Z,99.55
2018-12-06T15:47:01.332Z,98.98
2018-12-06T15:49:29.755Z,99.41
2018-12-06T15:51:58.202Z,99.32
2018-12-06T15:54:27.784Z,99.06
2018-12-06T15:56:56.283Z,98.94
2018-12-06T15:59:24.762Z,99.40
2018-12-06T16:01:53.358Z,98.55
2018-12-06T16:04:21.783Z,98.36
2018-12-06T16:06:50.299Z,98.96
2018-12-06T16:09:18.733Z,99.51
2018-12-06T16:11:47.234Z,98.86
2018-12-06T16:14:16.462Z,99.01
2018-12-06T16:16:44.989Z,99.47
2018-12-06T16:19:13.555Z,100.00
2018-12-06T16:21:42.049Z,100.00
2018-12-06T16:24:10.683Z,99.79
2018-12-06T16:26:39.209Z,99.84
2018-12-06T16:29:07.780Z,100.00
2018-12-06T16:31:36.225Z,100.00
2018-12-06T16:34:04.720Z,100.00
2018-12-06T16:36:34.473Z,100.00
2018-12-06T16:39:04.285Z,100.00
2018-12-06T16:41:32.824Z,100.00
2018-12-06T16:44:01.463Z,100.00
2018-12-06T16:46:32.039Z,99.95
2018-12-06T16:49:09.878Z,99.43
2018-12-06T16:51:33.175Z,100.00
2018-12-06T16:54:01.715Z,100.00
2018-12-06T16:56:30.312Z,100.00
2018-12-06T16:58:58.815Z,100.00
2018-12-06T17:01:27.358Z,100.00
2018-12-06T17:03:55.987Z,100.00
2018-12-06T17:06:24.609Z,99.40
2018-12-06T17:08:53.109Z,100.00
2018-12-06T17:11:21.591Z,100.00
2018-12-06T17:13:50.483Z,100.00
2018-12-06T17:16:19.083Z,100.00
2018-12-06T17:18:47.691Z,100.00
2018-12-06T17:21:16.747Z,100.00
2018-12-06T17:23:45.254Z,100.00
2018-12-06T17:26:13.785Z,100.00
2018-12-06T17:28:42.336Z,100.00
2018-12-06T17:31:10.921Z,100.00
2018-12-06T17:33:39.487Z,100.00
2018-12-06T17:36:08.025Z,100.00
2018-12-06T17:38:37.372Z,100.00
2018-12-06T17:41:05.924Z,100.00
2018-12-06T17:43:34.539Z,100.00
2018-12-06T17:46:03.307Z,100.00
2018-12-06T17:48:31.836Z,100.00
2018-12-06T17:51:00.546Z,100.00
2018-12-06T17:53:29.094Z,100.00
2018-12-06T17:55:58.289Z,100.00
2018-12-06T17:58:26.816Z,100.00
2018-12-06T18:00:55.476Z,100.00
2018-12-06T18:03:24.173Z,100.00
2018-12-06T18:05:52.685Z,100.00
2018-12-06T18:08:21.257Z,100.00
2018-12-06T18:10:49.737Z,100.00
2018-12-06T18:13:18.247Z,100.00
2018-12-06T18:15:47.146Z,100.00
2018-12-06T18:18:15.996Z,100.00
2018-12-06T18:20:44.628Z,100.00
2018-12-06T18:23:13.243Z,100.00
2018-12-06T18:25:41.910Z,100.00
2018-12-06T18:28:10.729Z,100.00
2018-12-06T18:30:40.158Z,100.00
2018-12-06T18:33:08.816Z,100.00
2018-12-06T18:35:37.698Z,99.90
2018-12-06T18:38:07.050Z,100.00
2018-12-06T18:40:35.469Z,100.00
2018-12-06T18:43:03.954Z,100.00
2018-12-06T18:45:32.571Z,100.00
2018-12-06T18:48:01.183Z,100.00
2018-12-06T18:50:29.638Z,100.00
2018-12-06T18:52:58.149Z,100.00
2018-12-06T18:55:26.690Z,100.00
2018-12-06T18:57:55.170Z,100.00
2018-12-06T19:00:23.712Z,100.00
2018-12-06T19:02:52.201Z,100.00
2018-12-06T19:05:23.142Z,100.00
2018-12-06T19:07:51.638Z,100.00
2018-12-06T19:10:20.207Z,100.00
2018-12-06T19:12:48.914Z,100.00
2018-12-06T19:15:17.438Z,100.00
2018-12-06T19:17:46.013Z,100.00
2018-12-06T19:20:14.502Z,100.00
2018-12-06T19:22:42.977Z,100.00
2018-12-06T19:25:11.916Z,100.00
2018-12-06T19:27:40.437Z,100.00
2018-12-06T19:30:10.050Z,100.00
2018-12-06T19:32:38.630Z,100.00
2018-12-06T19:35:07.406Z,100.00
2018-12-06T19:37:35.958Z,100.00
2018-12-06T19:40:04.522Z,100.00
2018-12-06T19:42:38.700Z,100.00
2018-12-06T19:45:03.593Z,100.00
2018-12-06T19:47:32.072Z,100.00
2018-12-06T19:50:00.531Z,100.00
2018-12-06T19:52:28.999Z,100.00
2018-12-06T19:54:57.517Z,100.00
2018-12-06T19:57:26.029Z,100.00
2018-12-06T19:59:54.527Z,100.00
2018-12-06T20:02:23.080Z,100.00
2018-12-06T20:04:51.633Z,100.00
2018-12-06T20:07:20.107Z,100.00
2018-12-06T20:09:48.556Z,100.00
2018-12-06T20:12:17.070Z,100.00
2018-12-06T20:14:45.564Z,100.00
2018-12-06T20:17:14.052Z,100.00
2018-12-06T20:19:42.549Z,100.00
2018-12-06T20:22:11.140Z,100.00
2018-12-06T20:24:39.630Z,100.00
2018-12-06T20:27:08.098Z,100.00
2018-12-06T20:29:36.617Z,100.00
2018-12-06T20:32:05.134Z,100.00
2018-12-06T20:34:33.613Z,100.00
2018-12-06T20:37:02.151Z,100.00
2018-12-06T20:39:30.636Z,100.00
2018-12-06T20:45:30.631Z,100.00
2018-12-06T20:47:59.970Z,100.00
2018-12-06T20:50:28.649Z,100.00
2018-12-06T20:52:57.782Z,100.00
2018-12-06T20:55:26.399Z,100.00
2018-12-06T20:57:54.902Z,100.00
2018-12-06T21:00:23.509Z,100.00
2018-12-06T21:02:52.116Z,100.00
2018-12-06T21:05:20.554Z,100.00
2018-12-06T21:07:49.069Z,100.00
2018-12-06T21:10:17.562Z,100.00
2018-12-06T21:12:46.086Z,100.00
2018-12-06T21:15:14.657Z,100.00
2018-12-06T21:17:43.203Z,100.00
2018-12-06T21:20:11.794Z,100.00
2018-12-06T21:22:40.266Z,100.00
2018-12-06T21:25:08.947Z,100.00
2018-12-06T21:27:37.536Z,100.00
2018-12-06T21:30:06.552Z,100.00
2018-12-06T21:32:35.059Z,100.00
2018-12-06T21:35:03.539Z,100.00
2018-12-06T21:37:32.051Z,100.00
2018-12-06T21:40:00.613Z,100.00
2018-12-06T21:42:30.180Z,100.00
2018-12-06T21:44:58.710Z,100.00
2018-12-06T21:47:27.867Z,100.00
2018-12-06T21:49:56.422Z,100.00
2018-12-06T21:52:25.035Z,100.00
2018-12-06T21:54:53.589Z,100.00
2018-12-06T21:57:22.142Z,100.00
2018-12-06T21:59:50.705Z,100.00
2018-12-06T22:02:24.759Z,100.00
2018-12-06T22:04:53.990Z,100.00
2018-12-06T22:07:22.530Z,100.00
2018-12-06T22:09:51.090Z,100.00
2018-12-06T22:12:20.622Z,100.00
2018-12-06T22:14:49.163Z,98.78
2018-12-06T22:17:18.221Z,99.61
2018-12-06T22:19:46.774Z,99.13
2018-12-06T22:22:15.318Z,99.06
2018-12-06T22:24:43.843Z,98.77
2018-12-06T22:27:12.368Z,99.35
2018-12-06T22:29:40.905Z,99.16
2018-12-06T22:32:09.423Z,98.99
2018-12-06T22:34:38.043Z,98.89
2018-12-06T22:37:06.575Z,99.26
2018-12-06T22:39:35.101Z,99.76
2018-12-06T22:42:03.610Z,99.32
2018-12-06T22:44:32.176Z,100.00
2018-12-06T22:47:01.635Z,99.53
2018-12-06T22:49:30.211Z,100.00
2018-12-06T22:51:58.852Z,100.00
2018-12-06T22:54:27.414Z,100.00
2018-12-06T22:56:55.971Z,99.96
2018-12-06T22:59:24.480Z,100.00
2018-12-06T23:01:53.017Z,99.43
2018-12-06T23:04:21.570Z,99.17
2018-12-06T23:06:50.091Z,98.54
2018-12-06T23:09:19.238Z,99.22
2018-12-06T23:11:47.994Z,99.30
2018-12-06T23:14:16.654Z,99.16
2018-12-06T23:16:45.122Z,99.25
2018-12-06T23:19:13.640Z,99.30
2018-12-06T23:21:42.352Z,99.32
2018-12-06T23:24:11.234Z,98.68
2018-12-06T23:26:39.848Z,99.72
2018-12-06T23:29:09.242Z,99.74
2018-12-06T23:31:38.700Z,99.55
2018-12-06T23:34:07.159Z,99.95
2018-12-06T23:36:35.793Z,100.00
2018-12-06T23:39:06.238Z,99.98
2018-12-06T23:41:34.994Z,100.00
2018-12-06T23:44:04.450Z,99.61
2018-12-06T23:46:33.046Z,99.86
2018-12-06T23:49:01.568Z,100.00
2018-12-06T23:51:37.836Z,100.00
2018-12-06T23:54:07.969Z,100.00
2018-12-06T23:56:36.547Z,100.00
2018-12-06T23:59:05.082Z,99.75
